createdAt,value
2024-04-06T00:00:44.950Z,84.85
2024-04-06T00:01:40.105Z,84.60
2024-04-06T00:02:35.229Z,83.16
2024-04-06T00:03:30.770Z,81.54
2024-04-06T00:04:25.637Z,80.90
2024-04-06T00:05:20.784Z,80.13
2024-04-06T00:06:15.900Z,79.90
2024-04-06T00:07:11.013Z,81.30
2024-04-06T00:08:13.233Z,83.49
2024-04-06T00:09:02.469Z,86.53
2024-04-06T00:09:56.508Z,86.98
2024-04-06T00:10:51.628Z,88.64
2024-04-06T00:11:46.831Z,89.40
2024-04-06T00:12:42.071Z,90.76
2024-04-06T00:13:37.464Z,91.86
2024-04-06T00:14:32.322Z,92.57
2024-04-06T00:15:27.441Z,92.99
2024-04-06T00:16:22.685Z,93.40
2024-04-06T00:17:17.799Z,91.36
2024-04-06T00:18:12.912Z,89.78
2024-04-06T00:19:08.230Z,90.17
2024-04-06T00:20:03.212Z,90.96
2024-04-06T00:20:58.302Z,90.96
2024-04-06T00:21:53.462Z,91.86
2024-04-06T00:22:48.560Z,93.61
2024-04-06T00:23:43.841Z,94.03
2024-04-06T00:24:38.830Z,92.68
2024-04-06T00:25:33.944Z,91.16
2024-04-06T00:26:29.120Z,90.86
2024-04-06T00:27:24.204Z,90.27
2024-04-06T00:28:19.299Z,92.47
2024-04-06T00:29:14.623Z,94.67
2024-04-06T00:30:09.597Z,94.35
2024-04-06T00:31:04.698Z,94.46
2024-04-06T00:31:59.948Z,93.93
2024-04-06T00:32:55.062Z,95.11
2024-04-06T00:33:50.296Z,94.39
2024-04-06T00:34:45.337Z,94.87
2024-04-06T00:35:40.445Z,94.87
2024-04-06T00:36:35.615Z,94.78
2024-04-06T00:37:30.719Z,94.28
2024-04-06T00:38:25.946Z,96.40
2024-04-06T00:39:21.360Z,95.90
2024-04-06T00:40:16.207Z,97.53
2024-04-06T00:41:11.936Z,97.42
2024-04-06T00:42:06.562Z,100.77
2024-04-06T00:43:01.721Z,102.00
2024-04-06T00:43:57.463Z,100.41
2024-04-06T00:44:52.144Z,97.42
2024-04-06T00:45:47.262Z,98.51
2024-04-06T00:46:42.396Z,98.05
2024-04-06T00:47:37.563Z,98.10
2024-04-06T00:48:32.659Z,96.18
2024-04-06T00:49:27.978Z,96.24
2024-04-06T00:50:22.954Z,94.60
2024-04-06T00:51:18.089Z,95.00
2024-04-06T00:52:13.380Z,94.35
2024-04-06T00:53:08.559Z,93.80
2024-04-06T00:54:04.100Z,94.67
2024-04-06T00:54:58.974Z,93.09
2024-04-06T00:55:54.089Z,91.66
2024-04-06T00:56:49.249Z,89.98
2024-04-06T00:57:44.333Z,87.25
2024-04-06T00:58:39.449Z,85.55
2024-04-06T00:59:34.734Z,84.77
2024-04-06T01:00:29.724Z,84.08
2024-04-06T01:01:24.847Z,83.66
2024-04-06T01:02:19.981Z,83.08
2024-04-06T01:03:15.110Z,83.00
2024-04-06T01:04:10.384Z,82.75
2024-04-06T01:05:05.385Z,82.34
2024-04-06T01:06:00.672Z,82.42
2024-04-06T01:06:55.811Z,82.91
2024-04-06T01:07:50.959Z,83.08
2024-04-06T01:08:46.141Z,82.83
2024-04-06T01:09:41.260Z,82.34
2024-04-06T01:10:36.366Z,81.30
2024-04-06T01:11:31.618Z,81.46
2024-04-06T01:12:26.773Z,82.10
2024-04-06T01:13:22.007Z,81.22
2024-04-06T01:14:17.265Z,79.82
2024-04-06T01:15:12.273Z,79.44
2024-04-06T01:16:07.411Z,79.21
2024-04-06T01:17:02.567Z,79.67
2024-04-06T01:17:58.022Z,79.67
2024-04-06T01:18:53.146Z,79.67
2024-04-06T01:19:48.423Z,79.82
2024-04-06T01:20:43.548Z,79.90
2024-04-06T01:21:38.630Z,79.29
2024-04-06T01:22:33.777Z,79.14
2024-04-06T01:23:28.937Z,79.44
2024-04-06T01:24:24.342Z,78.99
2024-04-06T01:25:19.213Z,78.10
2024-04-06T01:26:14.339Z,77.96
2024-04-06T01:27:09.479Z,78.03
2024-04-06T01:28:04.584Z,78.54
2024-04-06T01:28:59.725Z,79.36
2024-04-06T01:29:54.879Z,79.67
2024-04-06T01:30:50.130Z,79.97
2024-04-06T01:31:45.275Z,81.06
2024-04-06T01:32:40.453Z,80.82
2024-04-06T01:33:35.555Z,80.36
2024-04-06T01:34:31.080Z,80.98
2024-04-06T01:35:26.011Z,81.70
2024-04-06T01:36:21.107Z,82.75
2024-04-06T01:37:16.368Z,83.66
2024-04-06T01:38:11.558Z,84.25
2024-04-06T01:39:07.039Z,85.03
2024-04-06T01:40:02.067Z,84.85
2024-04-06T01:40:57.181Z,84.85
2024-04-06T01:41:52.293Z,84.51
2024-04-06T01:42:47.433Z,84.17
2024-04-06T01:43:42.539Z,84.77
2024-04-06T01:44:37.970Z,85.64
2024-04-06T01:45:32.938Z,86.35
2024-04-06T01:46:28.373Z,86.71
2024-04-06T01:47:23.524Z,87.25
2024-04-06T01:48:18.650Z,88.64
2024-04-06T01:49:14.029Z,89.21
2024-04-06T01:50:09.178Z,89.11
2024-04-06T01:51:04.360Z,88.83
2024-04-06T01:51:59.472Z,89.40
2024-04-06T01:52:54.627Z,89.21
2024-04-06T01:53:49.708Z,89.59
2024-04-06T01:54:45.118Z,89.69
2024-04-06T01:55:39.999Z,88.45
2024-04-06T01:56:35.113Z,87.16
2024-04-06T01:57:30.238Z,86.71
2024-04-06T01:58:25.350Z,85.99
2024-04-06T01:59:20.663Z,85.90
2024-04-06T02:00:15.656Z,85.03
2024-04-06T02:01:10.771Z,84.94
2024-04-06T02:02:05.922Z,85.46
2024-04-06T02:03:01.069Z,87.25
2024-04-06T02:03:56.161Z,87.61
2024-04-06T02:04:51.420Z,89.30
2024-04-06T02:05:46.441Z,90.96
2024-04-06T02:06:41.563Z,91.96
2024-04-06T02:07:36.702Z,92.88
2024-04-06T02:08:31.843Z,93.72
2024-04-06T02:09:27.095Z,94.46
2024-04-06T02:10:22.110Z,93.86
2024-04-06T02:11:17.218Z,94.28
2024-04-06T02:12:12.452Z,95.08
2024-04-06T02:13:07.469Z,95.90
2024-04-06T02:14:02.619Z,96.46
2024-04-06T02:14:57.637Z,96.02
2024-04-06T02:15:55.395Z,96.18
2024-04-06T02:16:50.514Z,96.35
2024-04-06T02:17:45.627Z,95.68
2024-04-06T02:18:40.771Z,96.51
2024-04-06T02:19:36.112Z,97.13
2024-04-06T02:20:31.736Z,98.10
2024-04-06T02:21:26.864Z,99.39
2024-04-06T02:22:22.196Z,99.81
2024-04-06T02:23:17.832Z,99.04
2024-04-06T02:24:13.172Z,97.87
2024-04-06T02:25:08.749Z,98.10
2024-04-06T02:26:03.868Z,97.36
2024-04-06T02:26:59.151Z,97.25
2024-04-06T02:27:54.876Z,98.28
2024-04-06T02:28:50.027Z,98.28
2024-04-06T02:29:45.336Z,98.86
2024-04-06T02:30:41.575Z,97.59
2024-04-06T02:31:36.757Z,97.30
2024-04-06T02:32:32.687Z,97.59
2024-04-06T02:33:27.805Z,99.51
2024-04-06T02:34:23.053Z,100.04
2024-04-06T02:35:18.807Z,100.29
2024-04-06T02:36:14.059Z,99.86
2024-04-06T02:37:09.894Z,99.51
2024-04-06T02:38:05.076Z,100.41
2024-04-06T02:39:00.303Z,101.01
2024-04-06T02:39:56.141Z,102.19
2024-04-06T02:40:52.178Z,100.71
2024-04-06T02:41:46.544Z,99.93
2024-04-06T02:42:41.579Z,98.45
2024-04-06T02:43:36.611Z,98.05
2024-04-06T02:44:31.817Z,98.10
2024-04-06T02:45:26.659Z,97.70
2024-04-06T02:46:21.688Z,99.04
2024-04-06T02:47:16.746Z,98.98
2024-04-06T02:48:11.804Z,98.63
2024-04-06T02:49:12.292Z,100.11
2024-04-06T02:50:07.221Z,100.95
2024-04-06T02:51:02.434Z,101.44
2024-04-06T02:51:58.207Z,101.50
2024-04-06T02:52:53.411Z,100.53
2024-04-06T02:53:48.721Z,101.01
2024-04-06T02:54:44.822Z,99.57
2024-04-06T02:55:39.998Z,99.57
2024-04-06T02:56:35.880Z,98.16
2024-04-06T02:57:31.006Z,98.57
2024-04-06T02:58:26.293Z,98.05
2024-04-06T02:59:22.249Z,98.39
2024-04-06T03:00:17.292Z,99.33
2024-04-06T03:01:13.151Z,98.57
2024-04-06T03:02:08.283Z,98.16
2024-04-06T03:03:03.588Z,99.27
2024-04-06T03:03:59.330Z,99.69
2024-04-06T03:04:54.534Z,100.35
2024-04-06T03:05:49.742Z,100.11
2024-04-06T03:06:46.049Z,99.93
2024-04-06T03:07:41.292Z,99.51
2024-04-06T03:08:37.022Z,99.81
2024-04-06T03:09:32.316Z,99.81
2024-04-06T03:10:27.414Z,99.51
2024-04-06T03:11:23.139Z,99.51
2024-04-06T03:12:18.424Z,98.57
2024-04-06T03:13:14.270Z,98.22
2024-04-06T03:14:09.389Z,97.70
2024-04-06T03:15:04.715Z,97.59
2024-04-06T03:16:02.298Z,99.27
2024-04-06T03:16:55.924Z,98.45
2024-04-06T03:17:52.022Z,97.70
2024-04-06T03:18:47.352Z,97.19
2024-04-06T03:19:42.616Z,97.08
2024-04-06T03:20:37.578Z,97.36
2024-04-06T03:21:32.833Z,98.39
2024-04-06T03:22:29.483Z,100.22
2024-04-06T03:23:24.689Z,100.95
2024-04-06T03:24:19.906Z,101.57
2024-04-06T03:25:16.231Z,100.59
2024-04-06T03:26:11.331Z,101.44
2024-04-06T03:27:07.148Z,101.26
2024-04-06T03:28:02.302Z,102.19
2024-04-06T03:28:57.525Z,103.58
2024-04-06T03:29:53.282Z,104.95
2024-04-06T03:30:48.532Z,105.55
2024-04-06T03:31:44.274Z,106.15
2024-04-06T03:32:39.489Z,105.55
2024-04-06T03:33:34.712Z,106.29
2024-04-06T03:34:30.513Z,106.02
2024-04-06T03:35:25.754Z,106.70
2024-04-06T03:36:21.198Z,106.90
2024-04-06T03:37:17.194Z,107.04
2024-04-06T03:38:12.369Z,107.11
2024-04-06T03:39:07.562Z,107.45
2024-04-06T03:40:02.944Z,107.45
2024-04-06T03:40:57.993Z,107.52
2024-04-06T03:41:53.935Z,107.52
2024-04-06T03:42:49.142Z,107.73
2024-04-06T03:43:44.338Z,108.22
2024-04-06T03:44:40.275Z,108.50
2024-04-06T03:45:35.344Z,108.43
2024-04-06T03:46:30.515Z,109.07
2024-04-06T03:47:25.765Z,109.64
2024-04-06T03:48:20.968Z,111.47
2024-04-06T03:49:16.434Z,112.91
2024-04-06T03:50:12.632Z,113.37
2024-04-06T03:51:07.809Z,113.14
2024-04-06T03:52:03.177Z,113.75
2024-04-06T03:53:02.301Z,113.44
2024-04-06T03:53:57.504Z,111.92
2024-04-06T03:54:52.730Z,112.30
2024-04-06T03:55:47.943Z,112.15
2024-04-06T03:56:43.019Z,111.25
2024-04-06T03:57:38.100Z,109.86
2024-04-06T03:58:33.089Z,110.66
2024-04-06T03:59:33.930Z,109.57
2024-04-06T04:00:29.258Z,108.78
2024-04-06T04:01:24.445Z,107.38
2024-04-06T04:02:19.520Z,107.11
2024-04-06T04:03:14.859Z,106.15
2024-04-06T04:04:10.072Z,105.75
2024-04-06T04:05:05.286Z,106.49
2024-04-06T04:06:00.554Z,106.29
2024-04-06T04:06:55.747Z,106.09
2024-04-06T04:07:50.947Z,106.70
2024-04-06T04:08:46.141Z,107.25
2024-04-06T04:09:41.390Z,108.43
2024-04-06T04:10:36.727Z,108.71
2024-04-06T04:11:32.017Z,108.57
2024-04-06T04:12:27.079Z,109.93
2024-04-06T04:13:22.306Z,110.81
2024-04-06T04:14:17.489Z,111.10
2024-04-06T04:15:12.707Z,112.37
2024-04-06T04:16:08.023Z,113.06
2024-04-06T04:17:03.102Z,113.52
2024-04-06T04:17:58.442Z,112.75
2024-04-06T04:18:53.823Z,112.30
2024-04-06T04:19:48.977Z,112.30
2024-04-06T04:20:44.375Z,112.98
2024-04-06T04:21:39.400Z,112.00
2024-04-06T04:22:34.509Z,111.47
2024-04-06T04:23:29.752Z,110.88
2024-04-06T04:24:24.951Z,110.66
2024-04-06T04:25:20.220Z,110.59
2024-04-06T04:26:15.431Z,109.86
2024-04-06T04:27:10.631Z,108.78
2024-04-06T04:28:05.966Z,108.57
2024-04-06T04:29:01.024Z,108.64
2024-04-06T04:29:56.250Z,109.14
2024-04-06T04:30:52.008Z,108.50
2024-04-06T04:31:47.228Z,109.57
2024-04-06T04:32:42.506Z,110.59
2024-04-06T04:33:37.724Z,111.70
2024-04-06T04:34:33.117Z,111.25
2024-04-06T04:35:28.383Z,112.07
2024-04-06T04:36:23.654Z,112.68
2024-04-06T04:37:18.914Z,113.99
2024-04-06T04:38:14.165Z,113.29
2024-04-06T04:39:09.270Z,114.06
2024-04-06T04:40:04.448Z,113.99
2024-04-06T04:40:59.296Z,114.85
2024-04-06T04:41:54.353Z,114.69
2024-04-06T04:42:49.388Z,114.93
2024-04-06T04:43:44.456Z,115.25
2024-04-06T04:44:43.350Z,114.06
2024-04-06T04:45:34.558Z,112.60
2024-04-06T04:46:29.626Z,112.60
2024-04-06T04:47:24.718Z,111.62
2024-04-06T04:48:19.908Z,110.95
2024-04-06T04:49:15.132Z,111.92
2024-04-06T04:50:10.414Z,111.62
2024-04-06T04:51:05.672Z,112.60
2024-04-06T04:52:00.812Z,112.30
2024-04-06T04:52:55.771Z,112.22
2024-04-06T04:53:50.788Z,112.53
2024-04-06T04:54:45.897Z,113.06
2024-04-06T04:55:40.901Z,113.99
2024-04-06T04:56:35.907Z,113.75
2024-04-06T04:57:30.958Z,113.52
2024-04-06T04:58:25.975Z,112.07
2024-04-06T04:59:21.021Z,111.70
2024-04-06T05:00:16.236Z,110.44
2024-04-06T05:01:11.125Z,110.59
2024-04-06T05:02:06.316Z,110.81
2024-04-06T05:03:01.364Z,110.81
2024-04-06T05:03:56.406Z,110.59
2024-04-06T05:04:51.593Z,109.64
2024-04-06T05:05:46.553Z,108.86
2024-04-06T05:06:41.681Z,106.83
2024-04-06T05:07:36.752Z,107.52
2024-04-06T05:08:31.867Z,107.04
2024-04-06T05:09:26.844Z,106.97
2024-04-06T05:10:21.948Z,107.25
2024-04-06T05:11:20.431Z,107.66
2024-04-06T05:12:15.527Z,107.66
2024-04-06T05:13:10.718Z,106.97
2024-04-06T05:14:05.888Z,106.36
2024-04-06T05:15:00.966Z,105.62
2024-04-06T05:15:56.043Z,105.08
2024-04-06T05:16:50.966Z,105.55
2024-04-06T05:17:46.032Z,105.35
2024-04-06T05:18:41.155Z,105.35
2024-04-06T05:19:36.261Z,105.89
2024-04-06T05:20:31.338Z,106.29
2024-04-06T05:21:26.344Z,104.95
2024-04-06T05:22:21.347Z,104.36
2024-04-06T05:23:16.394Z,104.17
2024-04-06T05:24:11.542Z,103.52
2024-04-06T05:25:06.942Z,103.20
2024-04-06T05:26:02.411Z,103.97
2024-04-06T05:26:57.809Z,103.78
2024-04-06T05:27:53.373Z,103.91
2024-04-06T05:28:48.651Z,104.36
2024-04-06T05:29:44.081Z,104.04
2024-04-06T05:30:39.676Z,103.65
2024-04-06T05:31:34.822Z,103.91
2024-04-06T05:32:30.247Z,103.97
2024-04-06T05:33:25.669Z,104.17
2024-04-06T05:34:25.147Z,105.08
2024-04-06T05:35:20.517Z,105.48
2024-04-06T05:36:16.221Z,105.08
2024-04-06T05:37:11.377Z,105.62
2024-04-06T05:38:06.818Z,107.38
2024-04-06T05:39:02.124Z,108.22
2024-04-06T05:39:57.552Z,109.71
2024-04-06T05:40:52.975Z,110.29
2024-04-06T05:41:48.412Z,110.88
2024-04-06T05:42:43.907Z,111.32
2024-04-06T05:43:39.320Z,113.83
2024-04-06T05:44:34.829Z,116.05
2024-04-06T05:45:30.273Z,117.02
2024-04-06T05:46:25.868Z,117.43
2024-04-06T05:47:21.227Z,117.68
2024-04-06T05:48:16.283Z,117.11
2024-04-06T05:49:11.338Z,117.52
2024-04-06T05:50:06.413Z,117.68
2024-04-06T05:51:01.495Z,117.35
2024-04-06T05:51:56.649Z,118.10
2024-04-06T05:52:51.677Z,118.35
2024-04-06T05:53:48.608Z,119.45
2024-04-06T05:54:43.735Z,119.11
2024-04-06T05:55:38.824Z,119.54
2024-04-06T05:56:35.037Z,119.71
2024-04-06T05:57:28.986Z,119.62
2024-04-06T05:58:24.198Z,119.88
2024-04-06T05:59:19.314Z,119.03
2024-04-06T06:00:14.318Z,118.69
2024-04-06T06:01:09.592Z,119.28
2024-04-06T06:02:04.508Z,118.27
2024-04-06T06:03:00.832Z,117.11
2024-04-06T06:03:56.266Z,116.70
2024-04-06T06:04:52.252Z,117.93
2024-04-06T06:05:47.737Z,118.43
2024-04-06T06:06:43.434Z,118.69
2024-04-06T06:07:38.970Z,119.71
2024-04-06T06:08:34.354Z,121.10
2024-04-06T06:09:30.153Z,121.45
2024-04-06T06:10:25.494Z,121.28
2024-04-06T06:11:21.003Z,121.10
2024-04-06T06:12:16.886Z,120.57
2024-04-06T06:13:12.270Z,121.19
2024-04-06T06:14:07.727Z,122.16
2024-04-06T06:15:03.921Z,120.40
2024-04-06T06:15:59.408Z,116.70
2024-04-06T06:16:55.312Z,117.27
2024-04-06T06:17:50.670Z,115.01
2024-04-06T06:18:46.145Z,114.22
2024-04-06T06:19:41.951Z,116.29
2024-04-06T06:20:37.494Z,115.81
2024-04-06T06:21:33.520Z,110.95
2024-04-06T06:22:28.803Z,111.55
2024-04-06T06:23:24.153Z,111.85
2024-04-06T06:24:19.943Z,112.60
2024-04-06T06:25:15.422Z,114.14
2024-04-06T06:26:11.058Z,115.48
2024-04-06T06:27:07.112Z,117.27
2024-04-06T06:28:02.565Z,115.89
2024-04-06T06:28:58.527Z,115.72
2024-04-06T06:29:53.838Z,113.44
2024-04-06T06:30:49.306Z,108.78
2024-04-06T06:31:45.076Z,111.03
2024-04-06T06:32:40.586Z,111.55
2024-04-06T06:33:36.444Z,108.01
2024-04-06T06:34:31.797Z,107.38
2024-04-06T06:35:27.288Z,111.32
2024-04-06T06:38:13.911Z,113.68
2024-04-06T06:41:00.587Z,116.86
2024-04-06T06:41:56.058Z,115.01
2024-04-06T06:42:52.398Z,112.98
2024-04-06T06:43:47.861Z,112.91
2024-04-06T06:44:43.636Z,112.30
2024-04-06T06:45:39.149Z,111.70
2024-04-06T06:46:34.524Z,110.95
2024-04-06T06:47:30.543Z,113.68
2024-04-06T06:48:25.990Z,113.83
2024-04-06T06:49:21.766Z,113.75
2024-04-06T06:50:17.234Z,114.14
2024-04-06T06:51:12.725Z,114.14
2024-04-06T06:52:08.377Z,110.81
2024-04-06T06:53:03.689Z,113.14
2024-04-06T06:53:59.470Z,117.43
2024-04-06T06:54:54.990Z,117.27
2024-04-06T06:55:50.919Z,115.09
2024-04-06T06:56:46.172Z,117.68
2024-04-06T06:57:41.508Z,119.71
2024-04-06T06:58:37.275Z,121.90
2024-04-06T07:00:28.275Z,124.16
2024-04-06T07:01:23.364Z,125.19
2024-04-06T07:02:18.481Z,126.42
2024-04-06T07:03:13.702Z,128.07
2024-04-06T07:04:08.673Z,128.17
2024-04-06T07:05:03.785Z,129.36
2024-04-06T07:05:58.950Z,129.16
2024-04-06T07:07:49.187Z,125.47
2024-04-06T07:09:02.274Z,125.47
2024-04-06T07:09:40.337Z,128.27
2024-04-06T07:10:34.333Z,127.09
2024-04-06T07:11:30.214Z,125.00
2024-04-06T07:12:25.837Z,125.75
2024-04-06T07:13:21.226Z,129.06
2024-04-06T07:14:17.092Z,130.27
2024-04-06T07:15:12.556Z,140.11
2024-04-06T07:16:08.083Z,157.73
2024-04-06T07:17:03.565Z,154.23
2024-04-06T07:17:58.642Z,154.80
2024-04-06T07:18:53.698Z,159.54
2024-04-06T07:19:48.689Z,164.73
2024-04-06T07:20:43.714Z,159.23
2024-04-06T07:21:38.840Z,157.73
2024-04-06T07:22:33.825Z,157.43
2024-04-06T07:23:28.829Z,162.01
2024-04-06T07:24:23.961Z,176.03
2024-04-06T07:25:18.923Z,185.94
2024-04-06T07:26:13.936Z,186.04
2024-04-06T07:27:09.095Z,181.39
2024-04-06T07:28:04.148Z,185.42
2024-04-06T07:28:59.228Z,193.96
2024-04-06T07:29:54.358Z,197.82
2024-04-06T07:30:49.356Z,206.15
2024-04-06T07:31:44.373Z,216.34
2024-04-06T07:32:39.364Z,223.72
2024-04-06T07:33:34.374Z,220.56
2024-04-06T07:34:29.354Z,214.36
2024-04-06T07:35:24.883Z,197.58
2024-04-06T07:36:20.449Z,186.36
2024-04-06T07:37:15.692Z,179.63
2024-04-06T07:38:13.839Z,178.29
2024-04-06T07:40:02.743Z,185.83
2024-04-06T07:40:58.208Z,189.81
2024-04-06T07:41:53.808Z,206.67
2024-04-06T07:42:49.371Z,220.26
2024-04-06T07:43:44.816Z,231.45
2024-04-06T07:44:40.379Z,224.64
2024-04-06T07:45:35.804Z,225.25
2024-04-06T07:46:31.386Z,252.46
2024-04-06T07:47:26.526Z,271.02
2024-04-06T07:48:21.817Z,287.15
2024-04-06T07:49:17.194Z,293.05
2024-04-06T07:50:12.752Z,300.84
2024-04-06T07:51:08.202Z,307.90
2024-04-06T07:52:03.972Z,306.46
2024-04-06T07:52:59.326Z,268.80
2024-04-06T07:53:54.619Z,279.09
2024-04-06T07:54:50.081Z,313.49
2024-04-06T07:55:45.754Z,338.04
2024-04-06T07:56:40.773Z,359.91
2024-04-06T07:57:35.937Z,367.16
2024-04-06T07:58:30.859Z,361.10
2024-04-06T07:59:25.881Z,368.40
2024-04-06T08:00:20.898Z,374.71
2024-04-06T08:01:15.971Z,379.53
2024-04-06T08:02:11.140Z,383.90
2024-04-06T08:03:06.023Z,386.79
2024-04-06T08:04:01.111Z,396.45
2024-04-06T08:04:56.092Z,397.40
2024-04-06T08:05:53.090Z,407.35
2024-04-06T08:06:48.179Z,417.03
2024-04-06T08:07:43.226Z,411.37
2024-04-06T08:08:38.309Z,402.92
2024-04-06T08:09:34.274Z,403.65
2024-04-06T08:10:29.847Z,389.96
2024-04-06T08:11:25.308Z,370.48
2024-04-06T08:12:21.048Z,354.09
2024-04-06T08:13:16.413Z,338.73
2024-04-06T08:14:20.754Z,318.05
2024-04-06T08:15:07.818Z,315.60
2024-04-06T08:16:01.932Z,329.55
2024-04-06T08:16:56.903Z,336.30
2024-04-06T08:17:52.068Z,341.20
2024-04-06T08:18:46.987Z,335.27
2024-04-06T08:19:42.002Z,337.69
2024-04-06T08:20:37.015Z,339.44
2024-04-06T08:21:32.026Z,341.20
2024-04-06T08:22:27.424Z,340.14
2024-04-06T08:23:22.336Z,320.85
2024-04-06T08:24:17.371Z,337.34
2024-04-06T08:25:12.405Z,345.15
2024-04-06T08:26:07.411Z,337.00
2024-04-06T08:27:02.436Z,344.06
2024-04-06T08:27:57.490Z,352.57
2024-04-06T08:28:52.509Z,357.17
2024-04-06T08:29:47.528Z,367.99
2024-04-06T08:30:42.986Z,374.28
2024-04-06T08:31:38.082Z,356.40
2024-04-06T08:32:33.227Z,346.61
2024-04-06T08:33:28.204Z,340.85
2024-04-06T08:34:23.209Z,317.43
2024-04-06T08:35:18.241Z,331.21
2024-04-06T08:36:13.272Z,336.30
2024-04-06T08:37:08.330Z,357.17
2024-04-06T08:38:05.695Z,364.71
2024-04-06T08:39:00.720Z,373.01
2024-04-06T08:39:55.850Z,386.79
2024-04-06T08:40:50.884Z,393.64
2024-04-06T08:41:45.902Z,393.64
2024-04-06T08:42:40.976Z,410.36
2024-04-06T08:43:35.978Z,423.39
2024-04-06T08:44:31.018Z,448.14
2024-04-06T08:45:27.163Z,450.56
2024-04-06T08:46:22.690Z,448.44
2024-04-06T08:47:18.296Z,450.56
2024-04-06T08:48:13.880Z,397.87
2024-04-06T08:49:09.294Z,406.11
2024-04-06T08:50:04.689Z,436.41
2024-04-06T08:51:00.186Z,453.32
2024-04-06T08:51:55.574Z,480.77
2024-04-06T08:52:51.139Z,500.62
2024-04-06T08:53:46.453Z,517.33
2024-04-06T08:54:41.465Z,529.65
2024-04-06T08:55:36.507Z,527.56
2024-04-06T08:56:31.557Z,531.77
2024-04-06T08:57:26.592Z,531.77
2024-04-06T08:58:21.778Z,493.58
2024-04-06T08:59:16.649Z,477.67
2024-04-06T09:00:11.778Z,528.81
2024-04-06T09:01:09.891Z,555.69
2024-04-06T09:02:04.995Z,568.97
2024-04-06T09:03:00.044Z,590.12
2024-04-06T09:03:55.043Z,623.79
2024-04-06T09:04:50.173Z,656.33
2024-04-06T09:05:45.158Z,663.52
2024-04-06T09:06:40.347Z,670.18
2024-04-06T09:07:35.464Z,651.20
2024-04-06T09:08:31.288Z,616.87
2024-04-06T09:09:26.850Z,570.92
2024-04-06T09:10:22.410Z,594.86
2024-04-06T09:11:17.986Z,611.21
2024-04-06T09:12:13.542Z,651.84
2024-04-06T09:13:09.181Z,638.73
2024-04-06T09:14:04.669Z,547.03
2024-04-06T09:15:00.187Z,524.24
2024-04-06T09:15:55.570Z,514.14
2024-04-06T09:16:50.881Z,372.16
2024-04-06T09:17:45.889Z,325.62
2024-04-06T09:18:40.913Z,351.06
2024-04-06T09:19:36.017Z,377.30
2024-04-06T09:20:31.071Z,402.68
2024-04-06T09:21:26.147Z,443.37
2024-04-06T09:22:21.153Z,498.38
2024-04-06T09:23:16.335Z,536.90
2024-04-06T09:24:13.515Z,536.04
2024-04-06T09:25:08.720Z,529.23
2024-04-06T09:26:03.718Z,537.77
2024-04-06T09:26:58.707Z,530.92
2024-04-06T09:27:53.800Z,594.86
2024-04-06T09:28:48.962Z,589.08
2024-04-06T09:29:43.993Z,625.55
2024-04-06T09:30:38.971Z,670.18
2024-04-06T09:31:35.219Z,683.93
2024-04-06T09:32:30.765Z,697.52
2024-04-06T09:33:26.129Z,653.76
2024-04-06T09:34:21.851Z,650.57
2024-04-06T09:35:17.115Z,602.92
2024-04-06T09:36:12.684Z,599.13
2024-04-06T09:37:09.206Z,638.73
2024-04-06T09:38:04.724Z,614.03
2024-04-06T09:39:00.437Z,622.63
2024-04-06T09:39:55.703Z,660.23
2024-04-06T09:40:51.203Z,670.18
2024-04-06T09:41:46.717Z,658.28
2024-04-06T09:42:41.991Z,635.08
2024-04-06T09:43:37.677Z,628.49
2024-04-06T09:44:33.387Z,601.29
2024-04-06T09:45:28.697Z,551.10
2024-04-06T09:46:24.379Z,547.48
2024-04-06T09:47:20.017Z,577.34
2024-04-06T09:48:15.569Z,576.84
2024-04-06T09:49:11.110Z,580.86
2024-04-06T09:50:06.168Z,572.88
2024-04-06T09:51:01.188Z,497.27
2024-04-06T09:51:56.206Z,452.70
2024-04-06T09:52:51.231Z,493.22
2024-04-06T09:53:46.409Z,539.07
2024-04-06T09:54:41.505Z,529.23
2024-04-06T09:55:36.556Z,544.80
2024-04-06T09:56:31.574Z,562.25
2024-04-06T09:57:26.602Z,533.47
2024-04-06T09:58:21.644Z,543.91
2024-04-06T09:59:16.759Z,573.37
2024-04-06T10:00:11.815Z,608.98
2024-04-06T10:01:09.404Z,573.37
2024-04-06T10:02:04.384Z,579.85
2024-04-06T10:02:59.432Z,583.92
2024-04-06T10:03:54.546Z,593.27
2024-04-06T10:04:49.671Z,583.41
2024-04-06T10:05:44.899Z,576.35
2024-04-06T10:06:39.794Z,533.47
2024-04-06T10:07:34.835Z,518.53
2024-04-06T10:08:29.948Z,541.70
2024-04-06T10:09:25.214Z,497.27
2024-04-06T10:10:21.743Z,472.60
2024-04-06T10:11:17.358Z,494.32
2024-04-06T10:12:12.888Z,519.74
2024-04-06T10:13:08.469Z,520.96
2024-04-06T10:14:03.923Z,473.94
2024-04-06T10:14:59.894Z,482.16
2024-04-06T10:15:55.331Z,501.38
2024-04-06T10:16:51.174Z,553.85
2024-04-06T10:17:46.492Z,593.27
2024-04-06T10:18:41.985Z,626.13
2024-04-06T10:19:37.738Z,619.73
2024-04-06T10:20:33.036Z,646.16
2024-04-06T10:21:28.614Z,656.98
2024-04-06T10:22:24.988Z,667.50
2024-04-06T10:23:20.413Z,695.34
2024-04-06T10:24:16.260Z,635.08
2024-04-06T10:25:11.687Z,546.59
2024-04-06T10:26:07.241Z,548.38
2024-04-06T10:27:02.995Z,554.31
2024-04-06T10:27:58.510Z,517.73
2024-04-06T10:28:54.352Z,525.48
2024-04-06T10:29:49.791Z,546.59
2024-04-06T10:30:45.380Z,601.84
2024-04-06T10:31:47.335Z,603.47
2024-04-06T10:32:37.561Z,593.27
2024-04-06T10:33:32.049Z,578.85
2024-04-06T10:34:31.540Z,581.37
2024-04-06T10:35:23.151Z,664.84
2024-04-06T10:36:17.500Z,717.03
2024-04-06T10:37:12.407Z,752.96
2024-04-06T10:38:07.391Z,779.79
2024-04-06T10:39:02.369Z,765.04
2024-04-06T10:39:57.948Z,802.28
2024-04-06T10:40:53.548Z,835.42
2024-04-06T10:41:48.987Z,752.11
2024-04-06T10:42:44.711Z,739.28
2024-04-06T10:43:40.336Z,717.03
2024-04-06T10:44:36.146Z,736.02
2024-04-06T10:45:31.731Z,783.91
2024-04-06T10:46:27.140Z,864.64
2024-04-06T10:47:22.981Z,911.26
2024-04-06T10:48:18.269Z,873.69
2024-04-06T10:49:13.964Z,761.55
2024-04-06T10:50:10.048Z,747.06
2024-04-06T10:51:05.870Z,763.73
2024-04-06T10:52:01.534Z,850.32
2024-04-06T10:52:56.941Z,978.74
2024-04-06T10:53:52.548Z,1030.09
2024-04-06T10:54:48.327Z,977.31
2024-04-06T10:55:43.624Z,989.62
2024-04-06T10:56:39.520Z,1064.59
2024-04-06T10:57:34.771Z,1106.96
2024-04-06T10:58:30.274Z,1160.87
2024-04-06T10:59:25.773Z,1204.87
2024-04-06T11:00:21.323Z,1275.07
2024-04-06T11:01:17.286Z,1289.85
2024-04-06T11:02:12.455Z,1259.43
2024-04-06T11:03:08.291Z,1284.89
2024-04-06T11:04:03.662Z,1237.26
2024-04-06T11:04:59.142Z,1177.25
2024-04-06T11:05:54.938Z,1159.86
2024-04-06T11:06:50.556Z,1100.58
2024-04-06T11:07:46.030Z,1101.48
2024-04-06T11:08:42.191Z,1051.18
2024-04-06T11:09:37.841Z,1100.58
2024-04-06T11:10:33.869Z,1179.33
2024-04-06T11:11:29.386Z,1196.24
2024-04-06T11:12:24.728Z,1244.18
2024-04-06T11:13:20.558Z,1257.06
2024-04-06T11:14:16.125Z,1204.87
2024-04-06T11:15:11.616Z,1184.56
2024-04-06T11:16:07.114Z,1089.80
2024-04-06T11:17:02.611Z,1091.58
2024-04-06T11:17:59.195Z,1136.17
2024-04-06T11:18:55.952Z,1209.24
2024-04-06T11:19:51.309Z,1238.40
2024-04-06T11:20:46.810Z,1264.20
2024-04-06T11:21:42.867Z,1312.68
2024-04-06T11:24:02.458Z,1669.79
2024-04-06T11:25:00.436Z,1525.71
2024-04-06T11:25:53.175Z,1531.84
2024-04-06T11:26:48.607Z,1583.63
2024-04-06T11:27:43.918Z,1655.30
2024-04-06T11:28:39.428Z,1662.52
2024-04-06T11:29:34.793Z,1727.04
2024-04-06T11:30:30.267Z,1750.82
2024-04-06T11:31:25.805Z,1706.07
2024-04-06T11:32:21.313Z,1704.98
2024-04-06T11:33:16.740Z,1675.03
2024-04-06T11:34:12.224Z,1690.94
2024-04-06T11:35:07.685Z,1765.87
2024-04-06T11:36:02.985Z,1712.64
2024-04-06T11:36:58.377Z,1554.13
2024-04-06T11:37:53.847Z,1552.33
2024-04-06T11:38:49.339Z,1569.67
2024-04-06T11:39:44.848Z,1762.38
2024-04-06T11:40:40.443Z,1860.63
2024-04-06T11:41:35.900Z,1944.65
2024-04-06T11:42:32.147Z,1997.01
2024-04-06T11:43:26.715Z,2061.78